createdAt,value
2022-10-04T00:00:25.262Z,93961.13
2022-10-04T00:03:05.154Z,93941.47
2022-10-04T00:05:32.231Z,93939.94
2022-10-04T00:08:18.095Z,93957.94
2022-10-04T00:10:44.923Z,93940.50
2022-10-04T00:13:24.846Z,93960.38
2022-10-04T00:15:51.916Z,93955.56
2022-10-04T00:18:29.798Z,93955.94
2022-10-04T00:20:59.772Z,93964.69
2022-10-04T00:23:38.132Z,93961.69
2022-10-04T00:26:12.398Z,93950.97
2022-10-04T00:28:39.939Z,93961.13
2022-10-04T00:31:06.773Z,93961.50
2022-10-04T00:33:39.649Z,93961.13
2022-10-04T00:36:24.232Z,93946.97
2022-10-04T00:39:09.124Z,93955.34
2022-10-04T00:41:48.564Z,93955.06
2022-10-04T00:44:38.763Z,93953.50
2022-10-04T00:47:27.020Z,93953.72
2022-10-04T00:49:58.050Z,93924.50
2022-10-04T00:52:30.588Z,93948.91
2022-10-04T00:55:03.948Z,93948.63
2022-10-04T00:57:37.804Z,93895.03
2022-10-04T01:00:12.477Z,93946.38
2022-10-04T01:03:02.846Z,93945.91
2022-10-04T01:05:39.629Z,93946.53
2022-10-04T01:08:22.825Z,93948.91
2022-10-04T01:10:58.052Z,93925.09
2022-10-04T01:13:38.783Z,93939.06
2022-10-04T01:16:33.597Z,93929.22
2022-10-04T01:19:21.687Z,93938.03
2022-10-04T01:22:18.417Z,93932.34
2022-10-04T01:24:46.041Z,93940.81
2022-10-04T01:27:33.986Z,93934.28
2022-10-04T01:30:02.268Z,93939.81
2022-10-04T01:32:30.352Z,93935.47
2022-10-04T01:34:58.330Z,93937.78
2022-10-04T01:37:25.550Z,93932.41
2022-10-04T01:39:52.346Z,93913.00
2022-10-04T01:42:27.426Z,93933.59
2022-10-04T01:45:14.916Z,93942.00
2022-10-04T01:47:56.904Z,93918.00
2022-10-04T01:50:33.744Z,93929.47
2022-10-04T01:53:23.572Z,93927.66
2022-10-04T01:56:12.792Z,93925.03
2022-10-04T01:58:48.227Z,93921.75
2022-10-04T02:01:23.566Z,93927.13
2022-10-04T02:04:22.240Z,93919.72
2022-10-04T02:06:56.509Z,93920.47
2022-10-04T02:09:32.120Z,93927.75
2022-10-04T02:11:59.127Z,93901.38
2022-10-04T02:14:29.847Z,93906.72
2022-10-04T02:16:57.208Z,93911.56
2022-10-04T02:19:31.220Z,93883.91
2022-10-04T02:21:58.830Z,93901.38
2022-10-04T02:24:25.902Z,93894.63
2022-10-04T02:26:53.227Z,93880.66
2022-10-04T02:29:20.981Z,93892.97
2022-10-04T02:32:09.311Z,93897.56
2022-10-04T02:34:36.925Z,93893.00
2022-10-04T02:37:05.886Z,93888.66
2022-10-04T02:39:38.208Z,93886.09
2022-10-04T02:42:49.809Z,93884.94
2022-10-04T02:45:19.697Z,93874.72
2022-10-04T02:47:51.823Z,93872.56
2022-10-04T02:50:35.840Z,93883.28
2022-10-04T02:53:32.411Z,93887.69
2022-10-04T02:55:59.401Z,93889.94
2022-10-04T02:58:27.530Z,93884.50
2022-10-04T03:00:59.797Z,93885.69
2022-10-04T03:03:37.608Z,93886.56
2022-10-04T03:06:14.833Z,93878.38
2022-10-04T03:08:47.588Z,93875.53
2022-10-04T03:11:16.079Z,93878.75
2022-10-04T03:13:49.206Z,93879.38
2022-10-04T03:16:16.538Z,93846.00
2022-10-04T03:18:45.821Z,93869.84
2022-10-04T03:21:15.987Z,93874.44
2022-10-04T03:23:43.512Z,93869.50
2022-10-04T03:26:25.063Z,93872.31
2022-10-04T03:28:51.904Z,93873.69
2022-10-04T03:31:19.891Z,93867.22
2022-10-04T03:33:47.593Z,93865.09
2022-10-04T03:36:18.495Z,93873.69
2022-10-04T03:38:48.529Z,93866.31
2022-10-04T03:41:16.547Z,93875.56
2022-10-04T03:43:46.594Z,93877.16
2022-10-04T03:46:14.458Z,93877.34
2022-10-04T03:48:45.904Z,93880.63
2022-10-04T03:51:18.080Z,93865.50
2022-10-04T03:53:47.527Z,93875.47
2022-10-04T03:56:16.799Z,93889.00
2022-10-04T03:58:44.150Z,93886.19
2022-10-04T04:01:37.035Z,93881.56
2022-10-04T04:04:34.853Z,93885.06
2022-10-04T04:07:05.570Z,93863.69
2022-10-04T04:10:01.260Z,93873.75
2022-10-04T04:12:57.090Z,93881.22
2022-10-04T04:15:30.412Z,93873.94
2022-10-04T04:18:02.031Z,93878.28
2022-10-04T04:20:35.374Z,93878.84
2022-10-04T04:23:18.173Z,93873.22
2022-10-04T04:25:48.256Z,93874.06
2022-10-04T04:28:36.598Z,93871.38
2022-10-04T04:31:31.930Z,93865.88
2022-10-04T04:34:04.255Z,93872.56
2022-10-04T04:36:38.659Z,93878.44
2022-10-04T04:39:27.850Z,93879.00
2022-10-04T04:41:54.718Z,93860.19
2022-10-04T04:44:21.707Z,93873.19
2022-10-04T04:46:48.767Z,93850.84
2022-10-04T04:49:18.290Z,93872.56
2022-10-04T04:51:52.336Z,93872.94
2022-10-04T04:54:24.508Z,93849.06
2022-10-04T04:56:53.008Z,93872.31
2022-10-04T04:59:22.802Z,93867.31
2022-10-04T05:01:50.402Z,93868.84
2022-10-04T05:04:20.025Z,93873.31
2022-10-04T05:06:58.914Z,93870.84
2022-10-04T05:09:33.195Z,93879.31
2022-10-04T05:12:10.428Z,93872.03
2022-10-04T05:14:46.264Z,93878.28
2022-10-04T05:17:23.191Z,93871.91
2022-10-04T05:19:51.318Z,93863.66
2022-10-04T05:22:22.914Z,93872.63
2022-10-04T05:24:56.351Z,93872.75
2022-10-04T05:27:25.847Z,93876.31
2022-10-04T05:30:05.080Z,93870.53
2022-10-04T05:33:00.920Z,93879.59
2022-10-04T05:35:29.509Z,93879.47
2022-10-04T05:38:09.592Z,93884.28
2022-10-04T05:40:45.293Z,93874.19
2022-10-04T05:43:36.008Z,93880.84
2022-10-04T05:46:18.479Z,93893.16
2022-10-04T05:48:47.258Z,93882.13
2022-10-04T05:51:48.893Z,93888.47
2022-10-04T05:54:22.033Z,93878.53
2022-10-04T05:57:17.224Z,93891.09
2022-10-04T06:00:08.782Z,93886.91
2022-10-04T06:02:52.073Z,93885.69
2022-10-04T06:05:30.536Z,93876.81
2022-10-04T06:08:24.080Z,93886.91
2022-10-04T06:11:09.651Z,93880.84
2022-10-04T06:13:54.682Z,93886.28
2022-10-04T06:16:45.462Z,93889.97
2022-10-04T06:19:53.609Z,93891.81
2022-10-04T06:22:26.655Z,93861.19
2022-10-04T06:25:06.290Z,93868.97
2022-10-04T06:28:11.594Z,93895.97
2022-10-04T06:31:07.658Z,93905.22
2022-10-04T06:33:47.395Z,93904.66
2022-10-04T06:36:23.167Z,93910.78
2022-10-04T06:39:05.070Z,93912.28
2022-10-04T06:41:44.388Z,93895.91
2022-10-04T06:44:30.820Z,93916.50
2022-10-04T06:47:18.990Z,93917.78
2022-10-04T06:49:59.760Z,93910.69
2022-10-04T06:53:14.212Z,93901.75
2022-10-04T06:56:12.324Z,93900.25
2022-10-04T06:59:00.738Z,93892.91
2022-10-04T07:01:33.083Z,93899.44
2022-10-04T07:04:37.668Z,93889.09
2022-10-04T07:07:27.108Z,93886.94
2022-10-04T07:10:22.870Z,93898.63
2022-10-04T07:13:05.739Z,93897.94
2022-10-04T07:15:48.766Z,93874.00
2022-10-04T07:18:22.766Z,93899.16
2022-10-04T07:20:52.255Z,93890.53
2022-10-04T07:23:28.844Z,93888.13
2022-10-04T07:26:02.391Z,93888.31
2022-10-04T07:28:59.255Z,93895.22
2022-10-04T07:31:34.451Z,93899.94
2022-10-04T07:34:11.926Z,93870.50
2022-10-04T07:36:45.827Z,93891.69
2022-10-04T07:39:37.814Z,93877.19
2022-10-04T07:42:07.847Z,93897.59
2022-10-04T07:44:37.336Z,93878.97
2022-10-04T07:47:09.720Z,93897.28
2022-10-04T07:49:40.459Z,93897.06
2022-10-04T07:52:16.106Z,93892.81
2022-10-04T07:55:01.004Z,93889.94
2022-10-04T07:57:39.533Z,93885.03
2022-10-04T08:00:08.982Z,93892.00
2022-10-04T08:02:45.060Z,93882.84
2022-10-04T08:05:36.152Z,93884.75
2022-10-04T08:08:21.159Z,93882.63
2022-10-04T08:11:11.100Z,93852.28
2022-10-04T08:13:50.187Z,93878.19
2022-10-04T08:16:49.785Z,93884.34
2022-10-04T08:19:53.135Z,93886.41
2022-10-04T08:22:33.250Z,93889.25
2022-10-04T08:25:23.011Z,93887.56
2022-10-04T08:28:26.433Z,93887.41
2022-10-04T08:30:59.325Z,93889.63
2022-10-04T08:33:41.339Z,93884.53
2022-10-04T08:36:35.122Z,93889.06
2022-10-04T08:39:01.926Z,93888.84
2022-10-04T08:41:43.568Z,93890.88
2022-10-04T08:44:37.791Z,93902.53
2022-10-04T08:47:28.562Z,93906.34
2022-10-04T08:50:10.420Z,93912.00
2022-10-04T08:52:52.204Z,93914.97
2022-10-04T08:55:48.922Z,93916.19
2022-10-04T08:58:29.995Z,93919.78
2022-10-04T09:01:05.983Z,93911.28
2022-10-04T09:04:09.939Z,93907.09
2022-10-04T09:06:57.379Z,93909.75
2022-10-04T09:09:45.219Z,93910.78
2022-10-04T09:12:41.251Z,93902.84
2022-10-04T09:15:21.103Z,93914.31
2022-10-04T09:18:12.051Z,93913.47
2022-10-04T09:20:53.790Z,93919.63
2022-10-04T09:23:34.115Z,93920.22
2022-10-04T09:26:22.409Z,93915.50
2022-10-04T09:29:26.391Z,93913.25
2022-10-04T09:32:01.645Z,93909.59
2022-10-04T09:34:46.680Z,93911.25
2022-10-04T09:37:37.731Z,93913.44
2022-10-04T09:40:29.294Z,93913.91
2022-10-04T09:43:05.556Z,93923.91
2022-10-04T09:45:44.371Z,93913.06
2022-10-04T09:48:26.291Z,93912.66
2022-10-04T09:51:19.823Z,93908.97
2022-10-04T09:54:23.291Z,93910.41
2022-10-04T09:57:31.280Z,93911.22
2022-10-04T10:00:28.941Z,93908.34
2022-10-04T10:03:22.196Z,93904.88
2022-10-04T10:05:54.507Z,93924.31
2022-10-04T10:08:28.393Z,93911.84
2022-10-04T10:11:17.684Z,93913.69
2022-10-04T10:14:04.515Z,93916.78
2022-10-04T10:17:00.835Z,93922.69
2022-10-04T10:19:58.297Z,93915.47
2022-10-04T10:22:28.818Z,93918.78
2022-10-04T10:25:10.411Z,93925.34
2022-10-04T10:27:52.698Z,93931.06
2022-10-04T10:30:37.888Z,93926.19
2022-10-04T10:33:20.614Z,93920.03
2022-10-04T10:36:13.078Z,93928.03
2022-10-04T10:39:09.122Z,93925.66
2022-10-04T10:42:13.632Z,93926.06
2022-10-04T10:44:43.227Z,93933.06
2022-10-04T10:47:18.828Z,93925.75
2022-10-04T10:50:02.680Z,93908.25
2022-10-04T10:52:54.608Z,93915.00
2022-10-04T10:55:49.177Z,93926.19
2022-10-04T10:58:45.677Z,93923.09
2022-10-04T11:01:47.668Z,93913.19
2022-10-04T11:04:35.687Z,93906.34
2022-10-04T11:07:02.879Z,93894.28
2022-10-04T11:10:08.376Z,93896.31
2022-10-04T11:12:47.377Z,93892.50
2022-10-04T11:15:32.828Z,93886.03
2022-10-04T11:18:21.449Z,93890.53
2022-10-04T11:21:18.413Z,93883.81
2022-10-04T11:24:15.587Z,93889.50
2022-10-04T11:27:03.205Z,93888.19
2022-10-04T11:29:32.588Z,93892.22
2022-10-04T11:32:02.050Z,93884.31
2022-10-04T11:35:12.582Z,93879.22
2022-10-04T11:38:00.826Z,93883.97
2022-10-04T11:41:06.052Z,93874.28
2022-10-04T11:43:32.646Z,93860.09
2022-10-04T11:46:09.840Z,93864.19
2022-10-04T11:48:40.558Z,93873.69
2022-10-04T11:51:32.079Z,93867.94
2022-10-04T11:54:13.923Z,93870.56
2022-10-04T11:56:43.770Z,93872.84
2022-10-04T11:59:28.823Z,93861.28
2022-10-04T12:02:17.039Z,93845.16
2022-10-04T12:05:15.172Z,93858.53
2022-10-04T12:08:12.107Z,93857.03
2022-10-04T12:10:41.228Z,93866.47
2022-10-04T12:13:32.311Z,93853.97
2022-10-04T12:16:27.581Z,93858.97
2022-10-04T12:19:25.511Z,93860.06
2022-10-04T12:22:07.621Z,93832.22
2022-10-04T12:24:34.158Z,93849.13
2022-10-04T12:27:39.103Z,93834.75
2022-10-04T12:30:14.881Z,93825.31
2022-10-04T12:32:57.810Z,93825.69
2022-10-04T12:35:33.846Z,93822.31
2022-10-04T12:38:09.285Z,93815.50
2022-10-04T12:40:57.047Z,93820.34
2022-10-04T12:43:33.145Z,93814.72
2022-10-04T12:46:11.974Z,93808.28
2022-10-04T12:49:01.196Z,93806.34
2022-10-04T12:51:43.432Z,93814.56
2022-10-04T12:54:10.051Z,93809.28
2022-10-04T12:56:39.615Z,93794.47
2022-10-04T12:59:15.399Z,93801.25
2022-10-04T13:02:04.420Z,93800.66
2022-10-04T13:05:12.746Z,93798.47
2022-10-04T13:08:02.391Z,93805.09
2022-10-04T13:11:08.095Z,93803.44
2022-10-04T13:14:17.068Z,93801.00
2022-10-04T13:20:12.857Z,93800.44
2022-10-04T13:23:03.850Z,93803.97
2022-10-04T13:25:53.420Z,93806.13
2022-10-04T13:28:55.169Z,93807.34
2022-10-04T13:31:34.691Z,93790.16
2022-10-04T13:34:13.269Z,93798.56
2022-10-04T13:36:58.621Z,93789.53
2022-10-04T13:39:34.045Z,93809.28
2022-10-04T13:42:27.552Z,93793.94
2022-10-04T13:44:54.957Z,93808.50
2022-10-04T13:47:52.680Z,93812.66
2022-10-04T13:50:38.018Z,93796.59
2022-10-04T13:53:35.356Z,93796.97
2022-10-04T13:56:36.623Z,93799.66
2022-10-04T13:59:20.927Z,93791.16
2022-10-04T14:02:22.888Z,93794.94
2022-10-04T14:05:16.186Z,93795.50
2022-10-04T14:08:07.433Z,93807.44
2022-10-04T14:10:46.643Z,93810.66
2022-10-04T14:13:32.376Z,93798.34
2022-10-04T14:16:33.993Z,93806.06
2022-10-04T14:19:21.145Z,93804.78
2022-10-04T14:22:12.792Z,93805.69
2022-10-04T14:24:46.577Z,93804.31
2022-10-04T14:27:52.001Z,93812.59
2022-10-04T14:30:27.478Z,93813.22
2022-10-04T14:33:15.575Z,93808.56
2022-10-04T14:35:52.980Z,93812.38
2022-10-04T14:38:38.488Z,93813.34
2022-10-04T14:41:41.270Z,93806.47
2022-10-04T14:44:35.715Z,93808.97
2022-10-04T14:47:40.084Z,93807.25
2022-10-04T14:50:25.848Z,93807.94
2022-10-04T14:53:19.207Z,93809.72
2022-10-04T14:55:59.572Z,93802.56
2022-10-04T14:58:40.818Z,93805.47
2022-10-04T15:01:27.057Z,93802.59
2022-10-04T15:04:31.129Z,93798.63
2022-10-04T15:07:03.510Z,93786.63
2022-10-04T15:09:52.624Z,93777.53
2022-10-04T15:12:40.812Z,93779.06
2022-10-04T15:15:14.291Z,93799.88
2022-10-04T15:17:55.208Z,93806.34
2022-10-04T15:20:23.082Z,93811.53
2022-10-04T15:22:54.418Z,93804.75
2022-10-04T15:25:53.793Z,93815.50
2022-10-04T15:28:50.090Z,93814.03
2022-10-04T15:31:41.578Z,93823.34
2022-10-04T15:34:13.908Z,93827.31
2022-10-04T15:36:56.532Z,93828.69
2022-10-04T15:39:39.251Z,93824.91
2022-10-04T15:42:21.575Z,93823.81
2022-10-04T15:45:05.387Z,93838.38
2022-10-04T15:47:50.307Z,93831.75
2022-10-04T15:50:55.269Z,93838.25
2022-10-04T15:53:59.604Z,93824.91
2022-10-04T15:56:42.352Z,93828.38
2022-10-04T15:59:27.978Z,93828.78
2022-10-04T16:02:04.006Z,93819.06
2022-10-04T16:04:49.294Z,93813.38
2022-10-04T16:07:40.871Z,93820.00
2022-10-04T16:10:47.628Z,93810.91
2022-10-04T16:13:41.810Z,93825.81
2022-10-04T16:16:31.592Z,93826.28
2022-10-04T16:19:26.758Z,93817.53
2022-10-04T16:22:07.898Z,93828.97
2022-10-04T16:24:45.604Z,93828.09
2022-10-04T16:27:44.372Z,93833.72
2022-10-04T16:30:52.368Z,93833.72
2022-10-04T16:33:26.888Z,93832.09
2022-10-04T16:36:20.424Z,93843.47
2022-10-04T16:39:14.700Z,93820.47
2022-10-04T16:41:45.831Z,93846.16
2022-10-04T16:44:28.985Z,93852.97
2022-10-04T16:47:00.452Z,93853.16
2022-10-04T16:49:48.323Z,93821.66
2022-10-04T16:52:47.982Z,93849.13
2022-10-04T16:55:44.298Z,93844.22
2022-10-04T16:58:30.686Z,93868.41
2022-10-04T17:01:22.085Z,93865.94
2022-10-04T17:04:03.966Z,93874.97
2022-10-04T17:06:49.574Z,93867.59
2022-10-04T17:09:25.372Z,93876.00
2022-10-04T17:11:54.774Z,93884.00
2022-10-04T17:14:39.492Z,93883.19
2022-10-04T17:17:21.592Z,93862.69
2022-10-04T17:19:54.026Z,93892.19
2022-10-04T17:22:38.304Z,93907.13
2022-10-04T17:25:32.845Z,93914.47
2022-10-04T17:28:12.292Z,93890.94
2022-10-04T17:31:05.372Z,93908.78
2022-10-04T17:34:06.166Z,93896.44
2022-10-04T17:36:43.852Z,93931.22
2022-10-04T17:39:35.881Z,93933.06
2022-10-04T17:42:21.403Z,93936.34
2022-10-04T17:44:56.412Z,93941.66
2022-10-04T17:47:54.147Z,93945.66
2022-10-04T17:50:45.893Z,93930.72
2022-10-04T17:53:37.777Z,93941.59
2022-10-04T17:56:08.392Z,93949.34
2022-10-04T17:58:44.570Z,93955.47
2022-10-04T18:01:49.985Z,93955.72
2022-10-04T18:04:30.451Z,93960.78
2022-10-04T18:07:08.851Z,93951.25
2022-10-04T18:09:41.631Z,93969.34
2022-10-04T18:12:23.271Z,93968.16
2022-10-04T18:15:00.251Z,93970.53
2022-10-04T18:17:34.792Z,93972.31
2022-10-04T18:20:35.401Z,93970.88
2022-10-04T18:23:27.192Z,93970.63
2022-10-04T18:26:10.025Z,93974.06
2022-10-04T18:28:37.354Z,93978.59
2022-10-04T18:31:23.078Z,93968.75
2022-10-04T18:33:54.007Z,93960.22
2022-10-04T18:36:27.195Z,93965.44
2022-10-04T18:39:04.014Z,93966.03
2022-10-04T18:41:49.897Z,93965.81
2022-10-04T18:44:20.215Z,93950.66
2022-10-04T18:46:51.178Z,93966.47
2022-10-04T18:49:25.143Z,93961.53
2022-10-04T18:52:01.139Z,93966.22
2022-10-04T18:54:36.668Z,93965.34
2022-10-04T18:57:15.867Z,93979.53
2022-10-04T19:00:13.004Z,93962.00
2022-10-04T19:03:05.888Z,93989.34
2022-10-04T19:06:05.620Z,93970.94
2022-10-04T19:09:21.053Z,93992.41
2022-10-04T19:12:11.353Z,93997.69
2022-10-04T19:14:53.483Z,94004.03
2022-10-04T19:17:29.470Z,94002.91
2022-10-04T19:20:05.900Z,94013.09
2022-10-04T19:22:38.541Z,94009.19
2022-10-04T19:25:26.822Z,94005.09
2022-10-04T19:28:15.112Z,94013.66
2022-10-04T19:30:54.076Z,94024.34
2022-10-04T19:33:28.845Z,94025.50
2022-10-04T19:36:14.181Z,94031.91
2022-10-04T19:38:54.469Z,94027.53
2022-10-04T19:41:24.063Z,94031.03
2022-10-04T19:44:13.397Z,94030.78
2022-10-04T19:47:01.156Z,94036.50
2022-10-04T19:49:37.254Z,94037.69
2022-10-04T19:52:44.479Z,94047.78
2022-10-04T19:55:32.737Z,94042.16
2022-10-04T19:58:16.287Z,94053.09
2022-10-04T20:00:43.070Z,94058.22
2022-10-04T20:03:12.573Z,94049.81
2022-10-04T20:05:50.658Z,94060.44
2022-10-04T20:08:50.826Z,94056.41
2022-10-04T20:11:27.901Z,94028.44
2022-10-04T20:14:10.080Z,94065.59
2022-10-04T20:17:04.047Z,94074.66
2022-10-04T20:19:31.428Z,94073.03
2022-10-04T20:22:12.962Z,94060.31
2022-10-04T20:24:39.520Z,94069.84
2022-10-04T20:27:26.927Z,94051.47
2022-10-04T20:30:01.605Z,94076.22
2022-10-04T20:32:34.400Z,94083.06
2022-10-04T20:35:06.154Z,94072.81
2022-10-04T20:37:44.858Z,94081.22
2022-10-04T20:40:23.564Z,94081.50
2022-10-04T20:43:15.087Z,94083.03
2022-10-04T20:45:44.150Z,94078.78
2022-10-04T20:48:17.273Z,94075.25
2022-10-04T20:50:49.217Z,94077.97
2022-10-04T20:53:23.505Z,94084.19
2022-10-04T20:55:53.663Z,94083.25
2022-10-04T20:58:41.099Z,94087.84
2022-10-04T21:01:41.312Z,94100.47
2022-10-04T21:04:42.620Z,94092.72
2022-10-04T21:07:12.612Z,94104.47
2022-10-04T21:09:41.620Z,94113.31
2022-10-04T21:12:39.583Z,94113.00
2022-10-04T21:15:06.809Z,94120.38
2022-10-04T21:17:36.205Z,94115.53
2022-10-04T21:20:04.761Z,94122.25
2022-10-04T21:22:33.420Z,94119.00
2022-10-04T21:25:01.340Z,94127.06
2022-10-04T21:27:38.488Z,94118.44
2022-10-04T21:30:07.995Z,94123.47
2022-10-04T21:32:36.888Z,94118.56
2022-10-04T21:35:08.239Z,94120.78
2022-10-04T21:37:35.144Z,94117.72
2022-10-04T21:40:02.425Z,94107.50
2022-10-04T21:42:29.072Z,94120.00
2022-10-04T21:44:55.658Z,94112.44
2022-10-04T21:47:22.687Z,94123.69
2022-10-04T21:49:51.886Z,94123.47
2022-10-04T21:52:18.907Z,94122.19
2022-10-04T21:54:45.831Z,94122.91
2022-10-04T21:57:13.403Z,94107.81
2022-10-04T21:59:40.147Z,94129.81
2022-10-04T22:02:07.826Z,94128.63
2022-10-04T22:04:34.739Z,94131.81
2022-10-04T22:07:01.379Z,94140.16
2022-10-04T22:09:29.038Z,94137.22
2022-10-04T22:11:55.721Z,94135.13
2022-10-04T22:14:22.408Z,94132.38
2022-10-04T22:16:49.841Z,94130.75
2022-10-04T22:19:16.833Z,94134.97
2022-10-04T22:21:43.388Z,94134.22
2022-10-04T22:24:17.448Z,94133.41
2022-10-04T22:26:44.694Z,94136.50
2022-10-04T22:29:17.384Z,94139.09
2022-10-04T22:31:50.901Z,94137.44
2022-10-04T22:34:20.040Z,94098.28
2022-10-04T22:36:49.217Z,94137.41
2022-10-04T22:39:18.794Z,94141.00
2022-10-04T22:41:48.471Z,94151.25
2022-10-04T22:44:29.184Z,94141.00
2022-10-04T22:46:58.718Z,94135.72
2022-10-04T22:49:27.629Z,94139.34
2022-10-04T22:51:56.345Z,94134.69
2022-10-04T22:54:26.217Z,94110.78
2022-10-04T22:56:53.415Z,94132.09
2022-10-04T22:59:22.525Z,94144.59
2022-10-04T23:01:49.177Z,94132.13
2022-10-04T23:04:26.141Z,94135.53
2022-10-04T23:06:53.364Z,94147.50
2022-10-04T23:09:20.789Z,94133.09
2022-10-04T23:11:47.688Z,94139.69
2022-10-04T23:14:14.862Z,94137.47
2022-10-04T23:16:42.872Z,94131.53
2022-10-04T23:19:13.661Z,94145.72
2022-10-04T23:21:44.089Z,94141.13
2022-10-04T23:24:19.396Z,94122.97
2022-10-04T23:26:49.647Z,94155.09
2022-10-04T23:29:30.106Z,94146.47
2022-10-04T23:31:57.500Z,94111.88
2022-10-04T23:34:32.127Z,94143.06
2022-10-04T23:36:59.162Z,94144.72
2022-10-04T23:39:31.954Z,94142.88
2022-10-04T23:41:59.195Z,94133.03
2022-10-04T23:44:33.763Z,94140.16
2022-10-04T23:47:01.021Z,94142.75
2022-10-04T23:49:28.302Z,94134.50
2022-10-04T23:52:01.703Z,94132.50
2022-10-04T23:54:29.131Z,94108.19
2022-10-04T23:56:55.735Z,94121.56
2022-10-04T23:59:25.390Z,94129.66
